Weather History for KENV - August, 2014

Change the Weather History Date:

Monday, August 25, 2014

  Actual Average Record
Temperature  
Mean Temperature 68 °F -  
Max Temperature 73 °F 87 °F 100 °F (2011)
Min Temperature 64 °F 63 °F 47 °F (1960)
Cooling Degree Days 4    
Growing Degree Days 18 (Base 50)    
Moisture  
Dew Point 42 °F    
Average Humidity 38    
Maximum Humidity 45    
Minimum Humidity 33    
Precipitation  
Precipitation 0.00 in - - ()
Sea Level Pressure  
Sea Level Pressure 29.98 in    
Wind  
Wind Speed 11 mph (North)    
Max Wind Speed 21 mph    
Max Gust Speed 26 mph    
Visibility 10 miles    
Events      
Averages and records for this station are not official NWS values.
T = Trace of Precipitation, MM = Missing Value Source: NWS Daily Summary

Daily Weather History Graph

Daily Weather History Graph

Search for Another Location

Airport or City:

Trip Planner

Search our weather history database for the weather conditions in past years. The results will help you decide how hot, cold, wet, or windy it might be!

Date:

Astronomy

Aug. 25, 2014 Rise Set
Actual Time 6:56 AM MDT 8:19 PM MDT
Civil Twilight 6:27 AM MDT 8:47 PM MDT
Nautical Twilight 5:53 AM MDT 9:21 PM MDT
Astronomical Twilight 5:17 AM MDT 9:57 PM MDT
Moon 7:05 AM MDT (8/25) 8:11 PM MDT (8/25)
Length of Visible Light 14h 19m
Length of Day
13h 22m
New Moon, 0% of the Moon is Illuminated
Aug 25
New Moon
Sep 2
First Quarter
Sep 8
Full
Sep 15
Last Quarter
Sep 24
New

Hourly Weather History & Observations

Time (MDT) Temp. Dew Point Humidity Pressure Visibility Wind Dir Wind Speed Gust Speed Precip Events Conditions
12:15 AM 66.2 °F 41.0 °F 40% 29.95 in 10.0 mi Calm Calm - N/A   Clear
12:35 AM 66.2 °F 39.2 °F 37% 29.95 in 10.0 mi Calm Calm - N/A   Clear
12:55 AM 66.2 °F 42.8 °F 43% 29.95 in 10.0 mi North 17.3 mph 20.7 mph N/A   Clear
1:15 AM 66.2 °F 42.8 °F 43% 29.95 in 10.0 mi North 20.7 mph - N/A   Clear
1:35 AM 66.2 °F 42.8 °F 43% 29.95 in 10.0 mi North 13.8 mph - N/A   Clear
1:55 AM 66.2 °F 41.0 °F 40% 29.95 in 10.0 mi NNE 12.7 mph - N/A   Clear
2:15 AM 66.2 °F 41.0 °F 40% 29.95 in 10.0 mi North 13.8 mph - N/A   Clear
2:35 AM 66.2 °F 42.8 °F 43% 29.94 in 10.0 mi North 10.4 mph - N/A   Clear
3:15 AM 66.2 °F 41.0 °F 40% 29.94 in 10.0 mi NNE 11.5 mph - N/A   Partly Cloudy
3:35 AM 66.2 °F 41.0 °F 40% 29.94 in 10.0 mi North 11.5 mph - N/A   Clear
3:55 AM 66.2 °F 41.0 °F 40% 29.93 in 10.0 mi North 15.0 mph - N/A   Clear
4:15 AM 66.2 °F 41.0 °F 40% 29.93 in 10.0 mi North 13.8 mph - N/A   Clear
4:35 AM 66.2 °F 41.0 °F 40% 29.94 in 10.0 mi North 9.2 mph - N/A   Clear
4:55 AM 66.2 °F 41.0 °F 40% 29.93 in 10.0 mi North 12.7 mph 17.3 mph N/A   Clear
5:15 AM 66.2 °F 41.0 °F 40% 29.94 in 10.0 mi North 11.5 mph - N/A   Clear
5:35 AM 66.2 °F 41.0 °F 40% 29.94 in 10.0 mi North 12.7 mph - N/A   Clear
5:55 AM 66.2 °F 41.0 °F 40% 29.94 in 10.0 mi NNE 13.8 mph - N/A   Clear
6:15 AM 66.2 °F 41.0 °F 40% 29.94 in 10.0 mi North 11.5 mph - N/A   Clear
6:35 AM 66.2 °F 41.0 °F 40% 29.95 in 10.0 mi NNE 8.1 mph - N/A   Clear
6:55 AM 64.4 °F 42.8 °F 45% 29.96 in 10.0 mi North 6.9 mph - N/A   Clear
7:15 AM 64.4 °F 42.8 °F 45% 29.96 in 10.0 mi North 8.1 mph - N/A   Clear
7:35 AM 64.4 °F 41.0 °F 42% 29.97 in 10.0 mi NNE 10.4 mph - N/A   Clear
7:55 AM 64.4 °F 41.0 °F 42% 29.98 in 10.0 mi North 10.4 mph - N/A   Clear
8:35 AM 66.2 °F 39.2 °F 37% 29.99 in 10.0 mi North 13.8 mph - N/A   Clear
8:55 AM 66.2 °F 39.2 °F 37% 29.99 in 10.0 mi North 12.7 mph 21.9 mph N/A   Clear
9:15 AM 66.2 °F 39.2 °F 37% 29.99 in 10.0 mi NNE 12.7 mph 19.6 mph N/A   Clear
9:35 AM 66.2 °F 41.0 °F 40% 29.99 in 10.0 mi NE 12.7 mph - N/A   Clear
9:55 AM 68.0 °F 41.0 °F 37% 29.99 in 10.0 mi NNE 12.7 mph - N/A   Clear
10:15 AM 68.0 °F 41.0 °F 37% 30.00 in 10.0 mi NNE 11.5 mph 16.1 mph N/A   Clear
10:35 AM 68.0 °F 41.0 °F 37% 30.00 in 10.0 mi North 10.4 mph 18.4 mph N/A   Clear
10:55 AM 69.8 °F 42.8 °F 38% 30.00 in 10.0 mi North 15.0 mph 21.9 mph N/A   Clear
11:15 AM 69.8 °F 42.8 °F 38% 30.01 in 10.0 mi North 18.4 mph - N/A   Clear
11:35 AM 69.8 °F 44.6 °F 40% 30.01 in 10.0 mi North 18.4 mph - N/A   Clear
11:55 AM 69.8 °F 42.8 °F 38% 30.02 in 10.0 mi North 15.0 mph 20.7 mph N/A   Clear
12:15 PM 69.8 °F 42.8 °F 38% 30.02 in 10.0 mi North 20.7 mph - N/A   Clear
12:35 PM 69.8 °F 44.6 °F 40% 30.02 in 10.0 mi North 20.7 mph 26.5 mph N/A   Clear
12:55 PM 69.8 °F 42.8 °F 38% 30.02 in 10.0 mi North 19.6 mph 24.2 mph N/A   Clear
1:15 PM 71.6 °F 42.8 °F 35% 30.02 in 10.0 mi NNE 16.1 mph 23.0 mph N/A   Clear
1:35 PM 71.6 °F 42.8 °F 35% 30.02 in 10.0 mi NNE 19.6 mph 26.5 mph N/A   Clear
1:55 PM 71.6 °F 42.8 °F 35% 30.02 in 10.0 mi NNE 18.4 mph 23.0 mph N/A   Clear
2:15 PM 71.6 °F 42.8 °F 35% 30.02 in 10.0 mi North 15.0 mph 19.6 mph N/A   Clear
2:35 PM 71.6 °F 42.8 °F 35% 30.02 in 10.0 mi NNE 15.0 mph 19.6 mph N/A   Clear
2:55 PM 71.6 °F 42.8 °F 35% 30.01 in 10.0 mi North 15.0 mph 19.6 mph N/A   Clear
3:15 PM 71.6 °F 42.8 °F 35% 30.00 in 10.0 mi North 12.7 mph - N/A   Clear
3:35 PM 71.6 °F 44.6 °F 38% 30.00 in 10.0 mi North 12.7 mph - N/A   Clear
3:55 PM 71.6 °F 42.8 °F 35% 30.00 in 10.0 mi NNE 12.7 mph - N/A   Clear
4:15 PM 71.6 °F 42.8 °F 35% 29.99 in 10.0 mi NNE 15.0 mph - N/A   Clear
4:35 PM 71.6 °F 42.8 °F 35% 29.99 in 10.0 mi North 11.5 mph - N/A   Clear
4:55 PM 71.6 °F 42.8 °F 35% 29.98 in 10.0 mi NNE 12.7 mph - N/A   Clear
5:15 PM 71.6 °F 42.8 °F 35% 29.98 in 10.0 mi NNE 12.7 mph - N/A   Clear
5:35 PM 73.4 °F 42.8 °F 33% 29.98 in 10.0 mi NNE 12.7 mph - N/A   Clear
5:55 PM 73.4 °F 42.8 °F 33% 29.98 in 10.0 mi North 10.4 mph - N/A   Clear
6:15 PM 73.4 °F 42.8 °F 33% 29.98 in 10.0 mi NNE 10.4 mph - N/A   Clear
6:35 PM 71.6 °F 42.8 °F 35% 29.98 in 10.0 mi North 9.2 mph - N/A   Partly Cloudy
6:55 PM 71.6 °F 42.8 °F 35% 29.97 in 10.0 mi NNE 10.4 mph - N/A   Partly Cloudy
7:15 PM 71.6 °F 42.8 °F 35% 29.96 in 10.0 mi NNE 9.2 mph - N/A   Clear
7:35 PM 69.8 °F 42.8 °F 38% 29.96 in 10.0 mi NNE 9.2 mph - N/A   Clear
7:55 PM 69.8 °F 42.8 °F 38% 29.97 in 10.0 mi North 8.1 mph - N/A   Clear
8:15 PM 69.8 °F 42.8 °F 38% 29.98 in 10.0 mi North 4.6 mph - N/A   Clear
8:35 PM 69.8 °F 44.6 °F 40% 29.98 in 10.0 mi NNE 3.5 mph - N/A   Clear
9:15 PM 69.8 °F 42.8 °F 38% 30.00 in 10.0 mi NNE 5.8 mph - N/A   Clear
9:35 PM 69.8 °F 42.8 °F 38% 30.02 in 10.0 mi North 5.8 mph - N/A   Clear
9:55 PM 69.8 °F 42.8 °F 38% 30.03 in 10.0 mi NNW 5.8 mph - N/A   Partly Cloudy
10:15 PM 69.8 °F 42.8 °F 38% 30.04 in 10.0 mi North 9.2 mph - N/A   Scattered Clouds
10:35 PM 66.2 °F 41.0 °F 40% 30.04 in 10.0 mi NNW 8.1 mph - N/A   Scattered Clouds
11:15 PM 68.0 °F 41.0 °F 37% 30.05 in 10.0 mi NNE 9.2 mph - N/A   Clear
11:35 PM 68.0 °F 41.0 °F 37% 30.05 in 10.0 mi North 13.8 mph 18.4 mph N/A   Clear
11:55 PM 68.0 °F 41.0 °F 37% 30.06 in 10.0 mi North 11.5 mph - N/A   Clear